sensor_id;sensor_type;location;lat;lon;timestamp;temperature;humidity
78345;DHT22;67620;51.134;6.548;2023-04-25T00:02:11;8.30;68.40
78345;DHT22;67620;51.134;6.548;2023-04-25T00:04:37;8.40;68.20
78345;DHT22;67620;51.134;6.548;2023-04-25T00:07:03;8.40;68.40
78345;DHT22;67620;51.134;6.548;2023-04-25T00:09:29;8.30;68.70
78345;DHT22;67620;51.134;6.548;2023-04-25T00:11:55;8.40;68.50
78345;DHT22;67620;51.134;6.548;2023-04-25T00:14:20;8.40;68.40
78345;DHT22;67620;51.134;6.548;2023-04-25T00:16:46;8.40;68.50
78345;DHT22;67620;51.134;6.548;2023-04-25T00:19:11;8.30;68.50
78345;DHT22;67620;51.134;6.548;2023-04-25T00:21:38;8.30;68.90
78345;DHT22;67620;51.134;6.548;2023-04-25T00:24:06;8.30;68.70
78345;DHT22;67620;51.134;6.548;2023-04-25T00:26:33;8.30;68.80
78345;DHT22;67620;51.134;6.548;2023-04-25T00:29:00;8.40;68.30
78345;DHT22;67620;51.134;6.548;2023-04-25T00:31:25;8.30;68.80
78345;DHT22;67620;51.134;6.548;2023-04-25T00:33:51;8.30;68.90
78345;DHT22;67620;51.134;6.548;2023-04-25T00:36:16;8.30;68.80
78345;DHT22;67620;51.134;6.548;2023-04-25T00:38:42;8.20;69.00
78345;DHT22;67620;51.134;6.548;2023-04-25T00:41:07;8.10;69.80
78345;DHT22;67620;51.134;6.548;2023-04-25T00:43:33;8.10;69.70
78345;DHT22;67620;51.134;6.548;2023-04-25T00:46:00;8.20;70.30
78345;DHT22;67620;51.134;6.548;2023-04-25T00:48:26;8.20;70.30
78345;DHT22;67620;51.134;6.548;2023-04-25T00:50:53;8.20;71.00
78345;DHT22;67620;51.134;6.548;2023-04-25T00:53:20;8.20;70.80
78345;DHT22;67620;51.134;6.548;2023-04-25T00:55:47;8.20;70.90
78345;DHT22;67620;51.134;6.548;2023-04-25T00:58:13;8.30;71.00
78345;DHT22;67620;51.134;6.548;2023-04-25T01:00:39;8.20;71.60
78345;DHT22;67620;51.134;6.548;2023-04-25T01:03:06;8.20;71.30
78345;DHT22;67620;51.134;6.548;2023-04-25T01:05:31;8.20;71.50
78345;DHT22;67620;51.134;6.548;2023-04-25T01:07:57;8.20;71.10
78345;DHT22;67620;51.134;6.548;2023-04-25T01:10:22;8.20;71.90
78345;DHT22;67620;51.134;6.548;2023-04-25T01:12:48;8.20;71.50
78345;DHT22;67620;51.134;6.548;2023-04-25T01:15:13;8.20;71.70
78345;DHT22;67620;51.134;6.548;2023-04-25T01:17:40;8.20;71.60
78345;DHT22;67620;51.134;6.548;2023-04-25T01:20:05;8.20;71.90
78345;DHT22;67620;51.134;6.548;2023-04-25T01:22:33;8.20;71.50
78345;DHT22;67620;51.134;6.548;2023-04-25T01:24:59;8.20;71.20
78345;DHT22;67620;51.134;6.548;2023-04-25T01:27:25;8.20;71.70
78345;DHT22;67620;51.134;6.548;2023-04-25T01:29:51;8.20;72.10
78345;DHT22;67620;51.134;6.548;2023-04-25T01:32:17;8.20;72.20
78345;DHT22;67620;51.134;6.548;2023-04-25T01:34:43;8.20;71.70
78345;DHT22;67620;51.134;6.548;2023-04-25T01:37:09;8.20;72.00
78345;DHT22;67620;51.134;6.548;2023-04-25T01:39:34;8.20;71.60
78345;DHT22;67620;51.134;6.548;2023-04-25T01:42:00;8.20;72.20
78345;DHT22;67620;51.134;6.548;2023-04-25T01:44:26;8.20;72.00
78345;DHT22;67620;51.134;6.548;2023-04-25T01:46:53;8.30;71.40
78345;DHT22;67620;51.134;6.548;2023-04-25T01:49:19;8.30;71.90
78345;DHT22;67620;51.134;6.548;2023-04-25T01:51:44;8.20;72.00
78345;DHT22;67620;51.134;6.548;2023-04-25T01:54:10;8.30;72.10
78345;DHT22;67620;51.134;6.548;2023-04-25T01:56:37;8.20;71.90
78345;DHT22;67620;51.134;6.548;2023-04-25T01:59:04;8.20;72.10
78345;DHT22;67620;51.134;6.548;2023-04-25T02:01:30;8.20;72.30
78345;DHT22;67620;51.134;6.548;2023-04-25T02:03:55;8.10;72.40
78345;DHT22;67620;51.134;6.548;2023-04-25T02:06:21;8.20;72.30
78345;DHT22;67620;51.134;6.548;2023-04-25T02:08:46;8.20;72.30
78345;DHT22;67620;51.134;6.548;2023-04-25T02:11:12;8.20;72.40
78345;DHT22;67620;51.134;6.548;2023-04-25T02:13:37;8.20;72.10
78345;DHT22;67620;51.134;6.548;2023-04-25T02:16:03;8.20;72.30
78345;DHT22;67620;51.134;6.548;2023-04-25T02:18:29;8.20;72.30
78345;DHT22;67620;51.134;6.548;2023-04-25T02:20:54;8.20;72.30
78345;DHT22;67620;51.134;6.548;2023-04-25T02:23:20;8.20;72.20
78345;DHT22;67620;51.134;6.548;2023-04-25T02:25:46;8.20;72.00
78345;DHT22;67620;51.134;6.548;2023-04-25T02:28:11;8.20;72.00
78345;DHT22;67620;51.134;6.548;2023-04-25T02:30:37;8.10;72.10
78345;DHT22;67620;51.134;6.548;2023-04-25T02:33:02;8.10;72.30
78345;DHT22;67620;51.134;6.548;2023-04-25T02:35:28;8.10;72.00
78345;DHT22;67620;51.134;6.548;2023-04-25T02:37:54;8.00;72.80
78345;DHT22;67620;51.134;6.548;2023-04-25T02:40:19;8.10;72.60
78345;DHT22;67620;51.134;6.548;2023-04-25T02:42:45;8.10;72.80
78345;DHT22;67620;51.134;6.548;2023-04-25T02:45:11;8.10;72.70
78345;DHT22;67620;51.134;6.548;2023-04-25T02:47:37;8.00;72.80
78345;DHT22;67620;51.134;6.548;2023-04-25T02:50:03;8.10;72.70
78345;DHT22;67620;51.134;6.548;2023-04-25T02:52:28;8.00;72.80
78345;DHT22;67620;51.134;6.548;2023-04-25T02:54:54;8.00;73.40
78345;DHT22;67620;51.134;6.548;2023-04-25T02:57:19;8.00;73.20
78345;DHT22;67620;51.134;6.548;2023-04-25T02:59:45;8.00;73.30
78345;DHT22;67620;51.134;6.548;2023-04-25T03:02:10;8.00;73.40
78345;DHT22;67620;51.134;6.548;2023-04-25T03:04:36;8.00;73.60
78345;DHT22;67620;51.134;6.548;2023-04-25T03:07:02;7.90;73.80
78345;DHT22;67620;51.134;6.548;2023-04-25T03:09:27;8.00;74.00
78345;DHT22;67620;51.134;6.548;2023-04-25T03:11:53;7.90;74.10
78345;DHT22;67620;51.134;6.548;2023-04-25T03:14:18;8.00;73.90
78345;DHT22;67620;51.134;6.548;2023-04-25T03:16:44;8.00;73.50
78345;DHT22;67620;51.134;6.548;2023-04-25T03:19:10;8.00;73.60
78345;DHT22;67620;51.134;6.548;2023-04-25T03:21:35;7.90;73.60
78345;DHT22;67620;51.134;6.548;2023-04-25T03:24:02;7.90;73.40
78345;DHT22;67620;51.134;6.548;2023-04-25T03:26:28;7.90;73.70
78345;DHT22;67620;51.134;6.548;2023-04-25T03:28:54;7.90;73.80
78345;DHT22;67620;51.134;6.548;2023-04-25T03:31:19;7.90;73.40
78345;DHT22;67620;51.134;6.548;2023-04-25T03:33:45;8.00;73.50
78345;DHT22;67620;51.134;6.548;2023-04-25T03:36:10;8.00;73.50
78345;DHT22;67620;51.134;6.548;2023-04-25T03:38:36;7.90;73.70
78345;DHT22;67620;51.134;6.548;2023-04-25T03:41:02;7.90;73.50
78345;DHT22;67620;51.134;6.548;2023-04-25T03:43:27;7.90;74.10
78345;DHT22;67620;51.134;6.548;2023-04-25T03:45:53;7.90;73.70
78345;DHT22;67620;51.134;6.548;2023-04-25T03:48:18;7.90;73.40
78345;DHT22;67620;51.134;6.548;2023-04-25T03:50:47;7.90;73.70
78345;DHT22;67620;51.134;6.548;2023-04-25T03:53:12;8.00;73.50
78345;DHT22;67620;51.134;6.548;2023-04-25T03:55:38;7.90;73.60
78345;DHT22;67620;51.134;6.548;2023-04-25T03:58:03;8.00;73.30
78345;DHT22;67620;51.134;6.548;2023-04-25T04:00:29;8.00;73.40
78345;DHT22;67620;51.134;6.548;2023-04-25T04:02:54;8.00;73.30
78345;DHT22;67620;51.134;6.548;2023-04-25T04:05:20;8.00;73.50
78345;DHT22;67620;51.134;6.548;2023-04-25T04:07:45;8.00;73.30
78345;DHT22;67620;51.134;6.548;2023-04-25T04:10:11;8.00;73.60
78345;DHT22;67620;51.134;6.548;2023-04-25T04:12:37;8.00;73.70
78345;DHT22;67620;51.134;6.548;2023-04-25T04:15:04;8.00;73.60
78345;DHT22;67620;51.134;6.548;2023-04-25T04:17:30;8.00;73.70
78345;DHT22;67620;51.134;6.548;2023-04-25T04:19:56;8.00;73.50
78345;DHT22;67620;51.134;6.548;2023-04-25T04:22:22;8.00;73.60
78345;DHT22;67620;51.134;6.548;2023-04-25T04:24:47;8.00;73.50
78345;DHT22;67620;51.134;6.548;2023-04-25T04:27:15;7.90;73.40
78345;DHT22;67620;51.134;6.548;2023-04-25T04:29:42;7.90;73.40
78345;DHT22;67620;51.134;6.548;2023-04-25T04:32:08;7.90;73.30
78345;DHT22;67620;51.134;6.548;2023-04-25T04:34:34;7.90;73.50
78345;DHT22;67620;51.134;6.548;2023-04-25T04:37:00;7.90;73.60
78345;DHT22;67620;51.134;6.548;2023-04-25T04:39:25;7.90;73.40
78345;DHT22;67620;51.134;6.548;2023-04-25T04:41:51;7.90;73.60
78345;DHT22;67620;51.134;6.548;2023-04-25T04:44:17;7.90;73.20
78345;DHT22;67620;51.134;6.548;2023-04-25T04:46:42;7.90;73.40
78345;DHT22;67620;51.134;6.548;2023-04-25T04:49:10;7.90;73.40
78345;DHT22;67620;51.134;6.548;2023-04-25T04:51:36;7.70;73.30
78345;DHT22;67620;51.134;6.548;2023-04-25T04:54:02;7.70;73.90
78345;DHT22;67620;51.134;6.548;2023-04-25T04:56:28;7.80;73.70
78345;DHT22;67620;51.134;6.548;2023-04-25T04:58:56;7.80;73.50
78345;DHT22;67620;51.134;6.548;2023-04-25T05:01:22;7.90;73.50
78345;DHT22;67620;51.134;6.548;2023-04-25T05:03:48;7.90;73.60
78345;DHT22;67620;51.134;6.548;2023-04-25T05:06:13;7.90;74.00
78345;DHT22;67620;51.134;6.548;2023-04-25T05:08:39;7.90;73.60
78345;DHT22;67620;51.134;6.548;2023-04-25T05:11:05;7.90;73.80
78345;DHT22;67620;51.134;6.548;2023-04-25T05:13:30;7.90;74.00
78345;DHT22;67620;51.134;6.548;2023-04-25T05:15:56;7.90;74.00
78345;DHT22;67620;51.134;6.548;2023-04-25T05:18:21;7.90;73.60
78345;DHT22;67620;51.134;6.548;2023-04-25T05:20:47;8.00;73.80
78345;DHT22;67620;51.134;6.548;2023-04-25T05:23:12;8.00;73.60
78345;DHT22;67620;51.134;6.548;2023-04-25T05:25:38;8.00;73.30
78345;DHT22;67620;51.134;6.548;2023-04-25T05:28:03;8.00;72.90
78345;DHT22;67620;51.134;6.548;2023-04-25T05:30:30;7.90;72.50
78345;DHT22;67620;51.134;6.548;2023-04-25T05:32:55;7.90;72.60
78345;DHT22;67620;51.134;6.548;2023-04-25T05:35:21;7.90;72.20
78345;DHT22;67620;51.134;6.548;2023-04-25T05:37:46;7.90;72.30
78345;DHT22;67620;51.134;6.548;2023-04-25T05:40:12;7.90;72.00
78345;DHT22;67620;51.134;6.548;2023-04-25T05:42:37;8.00;72.20
78345;DHT22;67620;51.134;6.548;2023-04-25T05:45:03;8.00;72.10
78345;DHT22;67620;51.134;6.548;2023-04-25T05:47:29;7.90;72.30
78345;DHT22;67620;51.134;6.548;2023-04-25T05:49:55;7.90;72.20
78345;DHT22;67620;51.134;6.548;2023-04-25T05:52:20;7.90;72.30
78345;DHT22;67620;51.134;6.548;2023-04-25T05:54:46;8.00;72.40
78345;DHT22;67620;51.134;6.548;2023-04-25T05:57:22;8.00;72.20
78345;DHT22;67620;51.134;6.548;2023-04-25T05:59:48;8.00;72.30
78345;DHT22;67620;51.134;6.548;2023-04-25T06:02:13;8.00;72.30
78345;DHT22;67620;51.134;6.548;2023-04-25T06:04:39;8.00;72.40
78345;DHT22;67620;51.134;6.548;2023-04-25T06:07:05;8.00;72.10
78345;DHT22;67620;51.134;6.548;2023-04-25T06:09:30;8.00;72.00
78345;DHT22;67620;51.134;6.548;2023-04-25T06:11:56;8.10;72.00
78345;DHT22;67620;51.134;6.548;2023-04-25T06:14:21;8.10;71.90
78345;DHT22;67620;51.134;6.548;2023-04-25T06:16:47;8.10;71.90
78345;DHT22;67620;51.134;6.548;2023-04-25T06:19:12;8.10;71.80
78345;DHT22;67620;51.134;6.548;2023-04-25T06:21:38;8.10;71.40
78345;DHT22;67620;51.134;6.548;2023-04-25T06:24:03;8.10;71.00
78345;DHT22;67620;51.134;6.548;2023-04-25T06:26:29;8.10;71.10
78345;DHT22;67620;51.134;6.548;2023-04-25T06:28:54;8.10;71.20
78345;DHT22;67620;51.134;6.548;2023-04-25T06:31:20;8.20;71.30
78345;DHT22;67620;51.134;6.548;2023-04-25T06:33:45;8.20;71.20
78345;DHT22;67620;51.134;6.548;2023-04-25T06:36:11;8.20;71.70
78345;DHT22;67620;51.134;6.548;2023-04-25T06:38:36;8.20;71.30
78345;DHT22;67620;51.134;6.548;2023-04-25T06:41:02;8.20;71.50
78345;DHT22;67620;51.134;6.548;2023-04-25T06:43:28;8.20;70.80
78345;DHT22;67620;51.134;6.548;2023-04-25T06:45:53;8.20;69.90
78345;DHT22;67620;51.134;6.548;2023-04-25T06:48:19;8.20;70.10
78345;DHT22;67620;51.134;6.548;2023-04-25T06:50:45;8.30;70.40
78345;DHT22;67620;51.134;6.548;2023-04-25T06:53:10;8.20;70.30
78345;DHT22;67620;51.134;6.548;2023-04-25T06:55:36;8.30;70.40
78345;DHT22;67620;51.134;6.548;2023-04-25T06:58:02;8.30;70.30
78345;DHT22;67620;51.134;6.548;2023-04-25T07:00:28;8.30;71.10
78345;DHT22;67620;51.134;6.548;2023-04-25T07:02:54;8.30;71.00
78345;DHT22;67620;51.134;6.548;2023-04-25T07:05:19;8.30;70.60
78345;DHT22;67620;51.134;6.548;2023-04-25T07:07:45;8.30;70.10
78345;DHT22;67620;51.134;6.548;2023-04-25T07:10:11;8.30;69.50
78345;DHT22;67620;51.134;6.548;2023-04-25T07:12:36;8.30;70.40
78345;DHT22;67620;51.134;6.548;2023-04-25T07:15:02;8.40;70.10
78345;DHT22;67620;51.134;6.548;2023-04-25T07:17:31;8.40;69.50
78345;DHT22;67620;51.134;6.548;2023-04-25T07:19:57;8.40;68.80
78345;DHT22;67620;51.134;6.548;2023-04-25T07:22:22;8.40;66.90
78345;DHT22;67620;51.134;6.548;2023-04-25T07:24:48;8.40;66.20
78345;DHT22;67620;51.134;6.548;2023-04-25T07:27:14;8.40;67.10
78345;DHT22;67620;51.134;6.548;2023-04-25T07:29:39;8.40;67.50
78345;DHT22;67620;51.134;6.548;2023-04-25T07:32:05;8.40;67.20
78345;DHT22;67620;51.134;6.548;2023-04-25T07:34:30;8.50;67.20
78345;DHT22;67620;51.134;6.548;2023-04-25T07:36:57;8.50;67.50
78345;DHT22;67620;51.134;6.548;2023-04-25T07:39:24;8.50;66.90
78345;DHT22;67620;51.134;6.548;2023-04-25T07:41:50;8.60;67.40
78345;DHT22;67620;51.134;6.548;2023-04-25T07:44:16;8.60;67.00
78345;DHT22;67620;51.134;6.548;2023-04-25T07:46:41;8.70;67.50
78345;DHT22;67620;51.134;6.548;2023-04-25T07:49:07;8.80;67.30
78345;DHT22;67620;51.134;6.548;2023-04-25T07:51:32;8.80;67.90
78345;DHT22;67620;51.134;6.548;2023-04-25T07:53:58;8.80;67.40
78345;DHT22;67620;51.134;6.548;2023-04-25T07:56:24;8.90;66.40
78345;DHT22;67620;51.134;6.548;2023-04-25T07:58:50;8.90;64.80
78345;DHT22;67620;51.134;6.548;2023-04-25T08:01:16;8.90;64.80
78345;DHT22;67620;51.134;6.548;2023-04-25T08:03:42;8.90;64.80
78345;DHT22;67620;51.134;6.548;2023-04-25T08:06:07;8.90;65.70
78345;DHT22;67620;51.134;6.548;2023-04-25T08:08:33;9.00;64.80
78345;DHT22;67620;51.134;6.548;2023-04-25T08:10:59;9.10;64.10
78345;DHT22;67620;51.134;6.548;2023-04-25T08:13:24;9.10;62.80
78345;DHT22;67620;51.134;6.548;2023-04-25T08:15:50;9.10;61.70
78345;DHT22;67620;51.134;6.548;2023-04-25T08:18:15;9.10;59.90
78345;DHT22;67620;51.134;6.548;2023-04-25T08:20:41;9.10;61.70
78345;DHT22;67620;51.134;6.548;2023-04-25T08:23:06;9.10;61.60
78345;DHT22;67620;51.134;6.548;2023-04-25T08:25:33;9.10;61.90
78345;DHT22;67620;51.134;6.548;2023-04-25T08:27:59;9.10;62.50
78345;DHT22;67620;51.134;6.548;2023-04-25T08:30:24;9.10;62.20
78345;DHT22;67620;51.134;6.548;2023-04-25T08:32:50;9.10;63.50
78345;DHT22;67620;51.134;6.548;2023-04-25T08:35:16;9.10;62.10
78345;DHT22;67620;51.134;6.548;2023-04-25T08:37:42;9.10;59.90
78345;DHT22;67620;51.134;6.548;2023-04-25T08:40:11;9.10;59.50
78345;DHT22;67620;51.134;6.548;2023-04-25T08:42:37;9.20;60.50
78345;DHT22;67620;51.134;6.548;2023-04-25T08:45:03;9.30;60.30
78345;DHT22;67620;51.134;6.548;2023-04-25T08:47:30;9.30;58.90
78345;DHT22;67620;51.134;6.548;2023-04-25T08:49:58;9.40;59.60
78345;DHT22;67620;51.134;6.548;2023-04-25T08:52:27;9.40;59.20
78345;DHT22;67620;51.134;6.548;2023-04-25T08:54:55;9.50;60.80
78345;DHT22;67620;51.134;6.548;2023-04-25T08:57:22;9.50;59.80
78345;DHT22;67620;51.134;6.548;2023-04-25T08:59:49;9.60;58.70
78345;DHT22;67620;51.134;6.548;2023-04-25T09:02:14;9.70;59.40
78345;DHT22;67620;51.134;6.548;2023-04-25T09:04:43;9.60;58.60
78345;DHT22;67620;51.134;6.548;2023-04-25T09:07:09;9.50;57.90
78345;DHT22;67620;51.134;6.548;2023-04-25T09:09:35;9.50;56.80
78345;DHT22;67620;51.134;6.548;2023-04-25T09:12:01;9.50;56.80
78345;DHT22;67620;51.134;6.548;2023-04-25T09:14:27;9.50;58.30
78345;DHT22;67620;51.134;6.548;2023-04-25T09:19:22;9.40;59.60
78345;DHT22;67620;51.134;6.548;2023-04-25T09:21:49;9.40;61.30
78345;DHT22;67620;51.134;6.548;2023-04-25T09:24:15;9.40;61.30
78345;DHT22;67620;51.134;6.548;2023-04-25T09:26:40;9.40;61.50
78345;DHT22;67620;51.134;6.548;2023-04-25T09:29:06;9.30;61.10
78345;DHT22;67620;51.134;6.548;2023-04-25T09:31:33;9.40;61.90
78345;DHT22;67620;51.134;6.548;2023-04-25T09:34:02;9.50;60.80
78345;DHT22;67620;51.134;6.548;2023-04-25T09:36:29;9.50;60.80
78345;DHT22;67620;51.134;6.548;2023-04-25T09:38:55;9.60;59.80
78345;DHT22;67620;51.134;6.548;2023-04-25T09:41:24;9.60;59.10
78345;DHT22;67620;51.134;6.548;2023-04-25T09:43:50;9.60;59.40
78345;DHT22;67620;51.134;6.548;2023-04-25T09:46:16;9.70;59.70
78345;DHT22;67620;51.134;6.548;2023-04-25T09:48:48;9.70;58.90
78345;DHT22;67620;51.134;6.548;2023-04-25T09:51:14;9.70;58.10
78345;DHT22;67620;51.134;6.548;2023-04-25T09:53:45;9.70;58.00
78345;DHT22;67620;51.134;6.548;2023-04-25T09:56:16;9.70;57.60
78345;DHT22;67620;51.134;6.548;2023-04-25T09:58:44;9.70;57.50
78345;DHT22;67620;51.134;6.548;2023-04-25T10:01:10;9.70;57.50
78345;DHT22;67620;51.134;6.548;2023-04-25T10:03:38;9.70;58.00
78345;DHT22;67620;51.134;6.548;2023-04-25T10:06:09;9.70;57.50
78345;DHT22;67620;51.134;6.548;2023-04-25T10:08:38;9.70;57.10
78345;DHT22;67620;51.134;6.548;2023-04-25T10:11:05;9.70;56.70
78345;DHT22;67620;51.134;6.548;2023-04-25T10:13:32;9.70;54.90
78345;DHT22;67620;51.134;6.548;2023-04-25T10:15:59;9.70;55.00
78345;DHT22;67620;51.134;6.548;2023-04-25T10:18:26;9.70;53.60
78345;DHT22;67620;51.134;6.548;2023-04-25T10:20:58;9.70;52.80
78345;DHT22;67620;51.134;6.548;2023-04-25T10:23:24;9.70;55.10
78345;DHT22;67620;51.134;6.548;2023-04-25T10:25:51;9.70;54.40
78345;DHT22;67620;51.134;6.548;2023-04-25T10:28:17;9.70;55.20
78345;DHT22;67620;51.134;6.548;2023-04-25T10:33:36;9.90;55.40
78345;DHT22;67620;51.134;6.548;2023-04-25T10:36:13;9.90;54.40
78345;DHT22;67620;51.134;6.548;2023-04-25T10:38:42;9.90;53.60
78345;DHT22;67620;51.134;6.548;2023-04-25T10:41:09;9.90;53.90
78345;DHT22;67620;51.134;6.548;2023-04-25T10:43:36;9.90;53.90
78345;DHT22;67620;51.134;6.548;2023-04-25T10:46:25;9.90;51.90
78345;DHT22;67620;51.134;6.548;2023-04-25T10:48:53;9.90;52.60
78345;DHT22;67620;51.134;6.548;2023-04-25T10:51:29;9.90;53.60
78345;DHT22;67620;51.134;6.548;2023-04-25T10:56:37;10.00;53.00
78345;DHT22;67620;51.134;6.548;2023-04-25T10:59:12;10.00;52.40
78345;DHT22;67620;51.134;6.548;2023-04-25T11:01:41;10.00;51.90
78345;DHT22;67620;51.134;6.548;2023-04-25T11:09:28;10.20;52.70
78345;DHT22;67620;51.134;6.548;2023-04-25T11:11:58;10.30;51.20
78345;DHT22;67620;51.134;6.548;2023-04-25T11:14:25;10.30;52.30
78345;DHT22;67620;51.134;6.548;2023-04-25T11:16:57;10.40;53.60
78345;DHT22;67620;51.134;6.548;2023-04-25T11:19:24;10.50;50.60
78345;DHT22;67620;51.134;6.548;2023-04-25T11:21:50;10.60;51.90
78345;DHT22;67620;51.134;6.548;2023-04-25T11:24:19;10.60;52.70
78345;DHT22;67620;51.134;6.548;2023-04-25T11:26:46;10.50;51.10
78345;DHT22;67620;51.134;6.548;2023-04-25T11:29:13;10.50;50.80
78345;DHT22;67620;51.134;6.548;2023-04-25T11:31:42;10.50;50.30
78345;DHT22;67620;51.134;6.548;2023-04-25T11:34:08;10.50;50.80
78345;DHT22;67620;51.134;6.548;2023-04-25T11:36:33;10.50;50.50
78345;DHT22;67620;51.134;6.548;2023-04-25T11:38:59;10.50;50.80
78345;DHT22;67620;51.134;6.548;2023-04-25T11:41:25;10.50;51.70
78345;DHT22;67620;51.134;6.548;2023-04-25T11:43:51;10.50;51.60
78345;DHT22;67620;51.134;6.548;2023-04-25T11:46:17;10.50;52.90
78345;DHT22;67620;51.134;6.548;2023-04-25T11:48:44;10.50;52.60
78345;DHT22;67620;51.134;6.548;2023-04-25T11:51:10;10.50;51.40
78345;DHT22;67620;51.134;6.548;2023-04-25T11:53:36;10.40;53.30
78345;DHT22;67620;51.134;6.548;2023-04-25T11:56:09;10.40;52.30
78345;DHT22;67620;51.134;6.548;2023-04-25T12:01:34;10.50;54.10
78345;DHT22;67620;51.134;6.548;2023-04-25T12:04:22;10.50;55.00
78345;DHT22;67620;51.134;6.548;2023-04-25T12:06:50;10.50;53.40
78345;DHT22;67620;51.134;6.548;2023-04-25T12:09:21;10.50;53.40
78345;DHT22;67620;51.134;6.548;2023-04-25T12:11:48;10.50;52.40
78345;DHT22;67620;51.134;6.548;2023-04-25T12:14:31;10.50;52.70
78345;DHT22;67620;51.134;6.548;2023-04-25T12:16:59;10.50;53.40
78345;DHT22;67620;51.134;6.548;2023-04-25T12:19:25;10.50;51.90
78345;DHT22;67620;51.134;6.548;2023-04-25T12:21:51;10.50;52.60
78345;DHT22;67620;51.134;6.548;2023-04-25T12:24:21;10.50;52.60
78345;DHT22;67620;51.134;6.548;2023-04-25T12:26:53;10.60;52.80
78345;DHT22;67620;51.134;6.548;2023-04-25T12:29:24;10.50;50.90
78345;DHT22;67620;51.134;6.548;2023-04-25T12:31:51;10.50;50.80
78345;DHT22;67620;51.134;6.548;2023-04-25T12:34:18;10.60;51.00
78345;DHT22;67620;51.134;6.548;2023-04-25T12:36:44;10.70;50.70
78345;DHT22;67620;51.134;6.548;2023-04-25T12:39:18;10.80;48.70
78345;DHT22;67620;51.134;6.548;2023-04-25T12:41:45;10.90;49.40
78345;DHT22;67620;51.134;6.548;2023-04-25T12:44:10;10.90;49.60
78345;DHT22;67620;51.134;6.548;2023-04-25T12:46:36;11.00;49.00
78345;DHT22;67620;51.134;6.548;2023-04-25T12:49:02;11.00;47.90
78345;DHT22;67620;51.134;6.548;2023-04-25T12:51:29;11.00;45.80
78345;DHT22;67620;51.134;6.548;2023-04-25T12:53:54;11.00;45.90
78345;DHT22;67620;51.134;6.548;2023-04-25T12:56:20;11.00;45.30
78345;DHT22;67620;51.134;6.548;2023-04-25T12:58:45;11.00;45.60
78345;DHT22;67620;51.134;6.548;2023-04-25T13:01:11;11.00;47.10
78345;DHT22;67620;51.134;6.548;2023-04-25T13:03:39;11.10;45.40
78345;DHT22;67620;51.134;6.548;2023-04-25T13:06:05;11.10;46.70
78345;DHT22;67620;51.134;6.548;2023-04-25T13:08:30;11.10;47.80
78345;DHT22;67620;51.134;6.548;2023-04-25T13:10:56;11.10;47.50
78345;DHT22;67620;51.134;6.548;2023-04-25T13:13:21;11.10;46.50
78345;DHT22;67620;51.134;6.548;2023-04-25T13:15:47;11.10;48.30
78345;DHT22;67620;51.134;6.548;2023-04-25T13:18:13;11.10;49.00
78345;DHT22;67620;51.134;6.548;2023-04-25T13:20:38;11.10;45.00
78345;DHT22;67620;51.134;6.548;2023-04-25T13:23:04;11.20;44.90
78345;DHT22;67620;51.134;6.548;2023-04-25T13:25:29;11.30;45.70
78345;DHT22;67620;51.134;6.548;2023-04-25T13:27:55;11.30;45.00
78345;DHT22;67620;51.134;6.548;2023-04-25T13:30:20;11.30;45.50
78345;DHT22;67620;51.134;6.548;2023-04-25T13:32:46;11.40;45.00
78345;DHT22;67620;51.134;6.548;2023-04-25T13:45:19;11.10;48.20
78345;DHT22;67620;51.134;6.548;2023-04-25T13:47:45;11.00;49.60
78345;DHT22;67620;51.134;6.548;2023-04-25T13:50:12;11.00;49.80
78345;DHT22;67620;51.134;6.548;2023-04-25T13:52:39;11.00;49.70
78345;DHT22;67620;51.134;6.548;2023-04-25T13:55:05;11.00;49.00
78345;DHT22;67620;51.134;6.548;2023-04-25T13:57:32;11.00;49.10
78345;DHT22;67620;51.134;6.548;2023-04-25T13:59:57;10.90;49.70
78345;DHT22;67620;51.134;6.548;2023-04-25T14:02:23;10.90;50.10
78345;DHT22;67620;51.134;6.548;2023-04-25T14:04:48;10.90;50.40
78345;DHT22;67620;51.134;6.548;2023-04-25T14:07:15;10.90;50.10
78345;DHT22;67620;51.134;6.548;2023-04-25T14:09:44;10.90;50.60
78345;DHT22;67620;51.134;6.548;2023-04-25T14:12:10;11.00;51.00
78345;DHT22;67620;51.134;6.548;2023-04-25T14:14:36;11.10;50.60
78345;DHT22;67620;51.134;6.548;2023-04-25T14:17:01;11.10;49.00
78345;DHT22;67620;51.134;6.548;2023-04-25T14:19:27;11.20;48.90
78345;DHT22;67620;51.134;6.548;2023-04-25T14:21:54;11.20;49.80
78345;DHT22;67620;51.134;6.548;2023-04-25T14:24:19;11.20;49.40
78345;DHT22;67620;51.134;6.548;2023-04-25T14:26:45;11.20;48.70
78345;DHT22;67620;51.134;6.548;2023-04-25T14:29:11;11.30;48.70
78345;DHT22;67620;51.134;6.548;2023-04-25T14:31:37;11.20;46.90
78345;DHT22;67620;51.134;6.548;2023-04-25T14:34:04;11.20;48.20
78345;DHT22;67620;51.134;6.548;2023-04-25T14:36:29;11.30;48.80
78345;DHT22;67620;51.134;6.548;2023-04-25T14:38:56;11.30;49.80
78345;DHT22;67620;51.134;6.548;2023-04-25T14:41:22;11.30;50.30
78345;DHT22;67620;51.134;6.548;2023-04-25T14:43:48;11.30;50.40
78345;DHT22;67620;51.134;6.548;2023-04-25T14:46:13;11.30;50.10
78345;DHT22;67620;51.134;6.548;2023-04-25T14:48:39;11.30;49.00
78345;DHT22;67620;51.134;6.548;2023-04-25T14:51:05;11.30;50.40
78345;DHT22;67620;51.134;6.548;2023-04-25T14:53:31;11.20;50.90
78345;DHT22;67620;51.134;6.548;2023-04-25T14:55:57;11.20;51.30
78345;DHT22;67620;51.134;6.548;2023-04-25T14:58:22;11.20;52.90
78345;DHT22;67620;51.134;6.548;2023-04-25T15:00:48;11.10;55.00
78345;DHT22;67620;51.134;6.548;2023-04-25T15:03:14;11.10;55.00
78345;DHT22;67620;51.134;6.548;2023-04-25T15:05:41;11.10;57.50
78345;DHT22;67620;51.134;6.548;2023-04-25T15:08:07;11.00;59.80
78345;DHT22;67620;51.134;6.548;2023-04-25T15:10:33;11.00;56.50
78345;DHT22;67620;51.134;6.548;2023-04-25T15:12:58;11.00;55.70
78345;DHT22;67620;51.134;6.548;2023-04-25T15:15:24;11.00;56.20
78345;DHT22;67620;51.134;6.548;2023-04-25T15:17:50;11.00;56.10
78345;DHT22;67620;51.134;6.548;2023-04-25T15:20:15;11.10;54.70
78345;DHT22;67620;51.134;6.548;2023-04-25T15:22:43;11.10;54.70
78345;DHT22;67620;51.134;6.548;2023-04-25T15:25:10;11.10;54.00
78345;DHT22;67620;51.134;6.548;2023-04-25T15:27:38;11.10;53.00
78345;DHT22;67620;51.134;6.548;2023-04-25T15:30:07;11.10;50.60
78345;DHT22;67620;51.134;6.548;2023-04-25T15:32:33;11.10;50.80
78345;DHT22;67620;51.134;6.548;2023-04-25T15:35:02;11.10;51.60
78345;DHT22;67620;51.134;6.548;2023-04-25T15:37:28;11.20;51.40
78345;DHT22;67620;51.134;6.548;2023-04-25T15:40:08;11.20;51.20
78345;DHT22;67620;51.134;6.548;2023-04-25T15:42:54;11.20;51.10
78345;DHT22;67620;51.134;6.548;2023-04-25T15:45:22;11.20;49.90
78345;DHT22;67620;51.134;6.548;2023-04-25T15:47:50;11.20;49.20
78345;DHT22;67620;51.134;6.548;2023-04-25T15:50:19;11.20;49.10
78345;DHT22;67620;51.134;6.548;2023-04-25T15:52:47;11.20;49.00
78345;DHT22;67620;51.134;6.548;2023-04-25T15:55:13;11.20;48.90
78345;DHT22;67620;51.134;6.548;2023-04-25T15:57:39;11.20;49.70
78345;DHT22;67620;51.134;6.548;2023-04-25T16:00:06;11.20;48.90
78345;DHT22;67620;51.134;6.548;2023-04-25T16:02:38;11.20;49.30
78345;DHT22;67620;51.134;6.548;2023-04-25T16:05:04;11.20;49.20